Latest Weather Observations for Coldstream

IDV60901

Issued at 11:51 pm EST Monday 6 July 2015 (issued every 10 minutes, with the page automatically refreshed every 10 minutes)

About weather observations | Map of Melbourne area stations | Latest observations for Melbourne area | Other Formats
Station Details ID: 086383 Name: COLDSTREAM Lat: -37.72 Lon: 145.41 Height: 83.0 m
Data from the previous 72 hours. | See also: Recent months at Coldstream
Date/Time
EST
Tmp

°C
App
Tmp
°C
Dew
Point
°C
Rel
Hum
%
Delta-T

°C
Wind Press
QNH
hPa
Press
MSL
hPa
Rain
since
9 am
mm
Dir
 
Spd
km/h
Gust
km/h
Spd
kts
Gust
kts
06/11:30pm 7.2 6.1 5.3 88 0.8 CALM 0 0 0 0 1019.0 1019.2 1.4
06/11:00pm 7.7 6.3 5.3 85 1.1 N 2 6 1 3 1018.9 1019.1 1.4
06/10:30pm 8.0 5.8 5.5 84 1.1 NNW 6 9 3 5 1018.8 1019.0 1.4
06/10:00pm 8.0 5.8 5.5 84 1.1 N 6 9 3 5 1018.6 1018.8 1.4
06/09:30pm 8.4 6.1 5.5 82 1.3 N 7 13 4 7 1018.4 1018.6 1.4
06/09:00pm 8.2 6.1 5.8 85 1.1 N 6 9 3 5 1018.3 1018.5 1.4
06/08:30pm 8.2 6.5 5.8 85 1.1 NNW 4 7 2 4 1018.1 1018.3 1.4
06/08:00pm 8.2 6.5 5.8 85 1.1 NE 4 7 2 4 1017.8 1017.9 1.4
06/07:30pm 8.0 5.9 6.0 87 0.9 NNE 6 9 3 5 1017.6 1017.7 1.4
06/07:00pm 8.1 6.0 5.9 86 1.0 NE 6 9 3 5 1017.5 1017.6 1.2
06/06:30pm 8.2 6.5 6.0 86 1.0 NNE 4 11 2 6 1017.3 1017.4 1.2
06/06:00pm 8.6 6.3 5.9 83 1.2 N 7 11 4 6 1017.1 1017.2 1.0
06/05:30pm 8.9 6.2 5.6 80 1.5 N 9 13 5 7 1016.7 1016.8 1.0
06/05:00pm 9.1 5.9 5.3 77 1.7 NNE 11 13 6 7 1016.3 1016.4 1.0
06/04:30pm 9.4 7.0 5.2 75 1.9 NNE 7 13 4 7 1016.1 1016.2 1.0
06/04:00pm 9.5 6.4 5.5 76 1.8 NNE 11 15 6 8 1016.0 1016.1 1.0
06/03:30pm 9.9 6.4 5.3 73 2.1 NNE 13 19 7 10 1015.9 1016.0 1.0
06/03:00pm 9.6 6.0 5.2 74 2.0 NNE 13 19 7 10 1015.8 1015.9 1.0
06/02:30pm 9.8 6.3 5.4 74 2.0 NNE 13 19 7 10 1015.8 1015.9 1.0
06/02:00pm 9.6 6.5 5.4 75 1.9 NNE 11 17 6 9 1016.0 1016.1 1.0
06/01:30pm 9.6 6.5 5.6 76 1.8 NNE 11 19 6 10 1016.1 1016.2 1.0
06/01:00pm 9.4 7.1 5.9 79 1.6 NNE 7 13 4 7 1016.3 1016.4 1.0
06/12:30pm 9.5 6.9 6.0 79 1.6 NNE 9 15 5 8 1016.4 1016.5 1.0
06/12:00pm 8.9 5.5 6.0 82 1.3 NNE 13 17 7 9 1016.7 1016.8 1.0
06/11:30am 8.7 5.3 6.0 83 1.2 NNE 13 20 7 11 1016.9 1017.0 1.0
06/11:00am 8.7 5.7 6.0 83 1.2 NNE 11 19 6 10 1017.3 1017.4 1.0
06/10:30am 8.4 6.2 6.2 86 1.0 NNE 7 11 4 6 1017.4 1017.5 1.0
06/10:00am 8.1 5.0 5.7 85 1.1 N 11 17 6 9 1017.5 1017.6 0.8
06/09:30am 8.4 5.2 5.0 79 1.5 N 11 15 6 8 1017.4 1017.5 0.2
06/09:00am 8.8 5.5 4.8 76 1.8 N 11 19 6 10 1017.3 1017.4 0.0
06/08:30am 8.4 5.5 4.6 77 1.7 NNE 9 13 5 7 1017.2 1017.3 0.0
06/08:00am 8.2 5.2 4.2 76 1.7 N 9 13 5 7 1017.2 1017.3 0.0
06/07:30am 8.9 5.1 3.7 70 2.3 N 13 20 7 11 1017.1 1017.2 0.0
06/07:00am 8.9 4.7 3.7 70 2.3 N 15 26 8 14 1017.0 1017.1 0.0
06/06:30am 9.0 5.5 3.6 69 2.3 N 11 15 6 8 1016.8 1016.9 0.0
06/06:00am 9.3 5.0 3.5 67 2.5 NNE 15 24 8 13 1016.6 1016.7 0.0
06/05:30am 9.2 5.0 3.6 68 2.4 N 15 22 8 12 1016.8 1016.9 0.0
06/05:00am 9.3 4.7 3.5 67 2.5 N 17 24 9 13 1016.8 1016.9 0.0
06/04:30am 9.2 4.6 3.6 68 2.4 N 17 28 9 15 1016.8 1016.9 0.0
06/04:00am 9.3 4.1 3.7 68 2.4 NNE 20 30 11 16 1016.9 1017.0 0.0
06/03:30am 9.2 4.0 3.6 68 2.4 N 20 28 11 15 1017.1 1017.2 0.0
06/03:00am 9.3 4.7 3.7 68 2.4 N 17 24 9 13 1017.3 1017.4 0.0
06/02:30am 9.5 4.3 3.7 67 2.5 N 20 32 11 17 1017.5 1017.6 0.0
06/02:00am 9.5 3.9 3.7 67 2.5 N 22 32 12 17 1017.7 1017.8 0.0
06/01:30am 9.5 3.6 3.7 67 2.5 N 24 32 13 17 1017.8 1017.9 0.0
06/01:00am 9.2 4.7 4.0 70 2.3 N 17 24 9 13 1018.0 1018.2 0.0
06/12:30am 8.9 5.1 4.1 72 2.1 N 13 22 7 12 1018.3 1018.5 0.0
06/12:00am 7.1 4.4 5.7 91 0.6 N 9 15 5 8 1018.4 1018.6 0.0
 
Date/Time
EST
Tmp

°C
App
Tmp
°C
Dew
Point
°C
Rel
Hum
%
Delta-T

°C
Wind Press
QNH
hPa
Press
MSL
hPa
Rain
since
9 am
mm
Dir
 
Spd
km/h
Gust
km/h
Spd
kts
Gust
kts
05/11:30pm 4.0 2.5 2.8 92 0.5 CALM 0 0 0 0 1018.6 1018.8 0.0
05/11:00pm 4.0 2.4 2.5 90 0.6 CALM 0 0 0 0 1018.6 1018.8 0.0
05/10:30pm 4.6 3.0 2.3 85 0.9 CALM 0 0 0 0 1018.6 1018.8 0.0
05/10:00pm 6.4 4.2 3.6 82 1.2 NNW 4 7 2 4 1018.7 1018.9 0.0
05/09:30pm 6.9 5.6 3.9 81 1.3 CALM 0 0 0 0 1018.8 1019.0 0.0
05/09:00pm 7.0 4.5 3.8 80 1.4 NNW 6 11 3 6 1018.8 1019.0 0.0
05/08:30pm 7.2 4.6 4.2 81 1.3 N 7 11 4 6 1018.9 1019.1 0.0
05/08:00pm 6.5 4.4 4.0 84 1.1 NNE 4 11 2 6 1018.9 1019.1 0.0
05/07:30pm 6.8 5.0 3.6 80 1.4 NE 2 7 1 4 1018.9 1019.1 0.0
05/07:00pm 8.2 5.6 4.4 77 1.7 NNE 7 13 4 7 1018.7 1018.9 0.0
05/06:30pm 8.4 5.8 4.2 75 1.8 NE 7 11 4 6 1018.7 1018.9 0.0
05/06:00pm 9.1 6.2 4.7 74 2.0 NNE 9 15 5 8 1018.6 1018.8 0.0
05/05:30pm 9.1 6.6 4.7 74 2.0 NNE 7 13 4 7 1018.6 1018.8 0.0
05/05:00pm 9.5 6.6 4.9 73 2.1 NNE 9 13 5 7 1018.5 1018.7 0.0
05/04:30pm 9.9 7.1 5.1 72 2.2 NNE 9 19 5 10 1018.6 1018.8 0.0
05/04:00pm 10.6 7.1 5.4 70 2.4 NNE 13 26 7 14 1018.6 1018.8 0.0
05/03:30pm 11.8 7.0 4.8 62 3.2 N 19 28 10 15 1018.6 1018.8 0.0
05/03:00pm 11.7 6.0 4.9 63 3.1 N 24 35 13 19 1018.7 1018.9 0.0
05/02:30pm 12.5 7.1 4.7 59 3.6 N 22 30 12 16 1018.7 1018.9 0.0
05/02:00pm 12.2 6.8 4.4 59 3.5 N 22 32 12 17 1018.7 1018.9 0.0
05/01:30pm 12.5 7.5 4.7 59 3.6 N 20 32 11 17 1019.0 1019.2 0.0
05/01:00pm 11.5 6.5 4.5 62 3.2 N 20 33 11 18 1019.3 1019.5 0.0
05/12:30pm 12.3 7.3 4.5 59 3.6 N 20 30 11 16 1019.6 1019.8 0.0
05/12:00pm 11.8 6.7 4.1 59 3.5 N 20 30 11 16 1020.0 1020.2 0.0
05/11:30am 11.7 6.7 4.4 61 3.3 N 20 28 11 15 1020.4 1020.6 0.0
05/11:00am 10.4 5.4 3.7 63 2.9 N 19 28 10 15 1020.8 1021.0 0.0
05/10:30am 10.6 6.1 4.3 65 2.8 N 17 26 9 14 1021.0 1021.2 0.0
05/10:00am 10.1 5.1 3.8 65 2.8 N 19 28 10 15 1021.2 1021.4 0.0
05/09:30am 9.8 5.3 4.2 68 2.5 N 17 24 9 13 1021.3 1021.5 0.0
05/09:00am 9.6 5.1 4.0 68 2.5 N 17 28 9 15 1021.1 1021.3 4.8
05/08:30am 9.1 6.1 4.3 72 2.1 NNE 9 17 5 9 1021.2 1021.4 4.8
05/08:00am 8.9 5.1 4.1 72 2.1 N 13 22 7 12 1021.1 1021.3 4.8
05/07:30am 8.8 5.8 4.2 73 2.0 NNE 9 15 5 8 1021.1 1021.3 4.8
05/07:00am 8.6 5.7 4.4 75 1.8 NE 9 13 5 7 1021.0 1021.2 4.8
05/06:30am 8.7 6.2 4.5 75 1.9 NNE 7 11 4 6 1020.9 1021.1 4.8
05/06:00am 8.6 5.3 4.4 75 1.8 NNE 11 17 6 9 1020.6 1020.8 4.8
05/05:30am 8.5 6.0 4.7 77 1.7 NE 7 11 4 6 1020.6 1020.8 4.8
05/05:00am 8.5 5.2 4.7 77 1.7 NNE 11 19 6 10 1020.5 1020.7 4.8
05/04:30am 8.0 6.1 5.1 82 1.3 NE 4 9 2 5 1020.8 1021.0 4.8
05/04:00am 7.9 5.5 5.4 84 1.1 NE 7 13 4 7 1020.8 1021.0 4.8
05/03:30am 7.9 5.2 5.5 85 1.1 NE 9 15 5 8 1021.2 1021.4 4.8
05/03:00am 8.1 4.6 5.4 83 1.2 NNE 13 19 7 10 1021.4 1021.6 4.8
05/02:30am 7.8 5.1 5.4 85 1.1 NE 9 13 5 7 1021.8 1022.0 4.8
05/02:00am 7.8 5.5 5.6 86 1.0 NE 7 13 4 7 1021.8 1022.0 4.4
05/01:30am 7.7 5.0 5.7 87 0.9 NE 9 15 5 8 1021.6 1021.8 4.4
05/01:00am 7.7 5.0 5.7 87 0.9 NE 9 13 5 7 1021.8 1022.0 4.4
05/12:30am 8.3 5.5 5.1 80 1.4 NE 9 17 5 9 1021.9 1022.1 4.2
05/12:00am 8.2 5.0 5.1 81 1.4 NE 11 17 6 9 1021.9 1022.1 4.2
 
Date/Time
EST
Tmp

°C
App
Tmp
°C
Dew
Point
°C
Rel
Hum
%
Delta-T

°C
Wind Press
QNH
hPa
Press
MSL
hPa
Rain
since
9 am
mm
Dir
 
Spd
km/h
Gust
km/h
Spd
kts
Gust
kts
04/11:30pm 8.1 5.4 5.4 83 1.2 NE 9 15 5 8 1022.1 1022.3 4.2
04/11:00pm 8.2 5.0 5.3 82 1.3 NE 11 17 6 9 1022.2 1022.4 4.2
04/10:30pm 8.2 5.0 5.1 81 1.4 NE 11 20 6 11 1022.3 1022.5 4.2
04/10:00pm 8.1 5.3 5.2 82 1.3 NE 9 19 5 10 1022.3 1022.5 4.2
04/09:30pm 8.0 4.8 5.3 83 1.2 NE 11 19 6 10 1022.4 1022.6 4.2
04/09:00pm 8.0 4.8 5.3 83 1.2 NE 11 19 6 10 1022.5 1022.7 4.2
04/08:30pm 7.9 5.1 5.2 83 1.2 NE 9 17 5 9 1022.6 1022.8 4.2
04/08:00pm 7.9 5.1 5.2 83 1.2 NE 9 17 5 9 1022.6 1022.8 4.2
04/07:30pm 7.7 4.9 5.2 84 1.1 NE 9 15 5 8 1022.6 1022.8 4.2
04/07:00pm 7.6 4.4 5.2 85 1.1 NE 11 19 6 10 1022.6 1022.8 4.2
04/06:30pm 7.5 3.9 5.1 85 1.1 NE 13 20 7 11 1022.4 1022.6 4.2
04/06:00pm 7.3 3.8 5.3 87 0.9 NE 13 20 7 11 1022.4 1022.6 4.2
04/05:30pm 7.0 3.9 5.5 90 0.7 NE 11 17 6 9 1022.3 1022.5 4.2
04/05:00pm 7.0 3.5 5.5 90 0.7 NE 13 22 7 12 1022.3 1022.5 4.0
04/04:30pm 7.0 3.9 5.5 90 0.7 NE 11 17 6 9 1022.4 1022.6 4.0
04/04:00pm 7.0 3.5 5.3 89 0.8 NNE 13 22 7 12 1022.5 1022.7 4.0
04/03:30pm 6.8 3.7 5.6 92 0.5 NE 11 20 6 11 1022.4 1022.6 4.0
04/03:00pm 6.7 3.3 5.7 93 0.4 NNE 13 20 7 11 1022.3 1022.5 4.0
04/02:30pm 6.7 3.5 5.3 91 0.6 NE 11 20 6 11 1022.2 1022.4 4.0
04/02:00pm 6.9 3.8 5.5 91 0.6 NNE 11 20 6 11 1022.3 1022.5 3.8
04/01:30pm 6.7 3.2 5.5 92 0.5 NNE 13 20 7 11 1022.5 1022.7 3.6
04/01:00pm 6.9 3.4 5.4 90 0.7 NE 13 22 7 12 1022.6 1022.8 3.2
04/12:30pm 6.9 3.0 5.4 90 0.7 NNE 15 20 8 11 1022.9 1023.1 3.0
04/12:00pm 7.1 3.5 5.1 87 0.9 NE 13 20 7 11 1023.1 1023.3 2.2
04/11:30am 7.2 3.6 5.0 86 1.0 NNE 13 22 7 12 1023.4 1023.6 2.0
04/11:00am 7.1 4.2 4.9 86 1.0 NE 9 13 5 7 1023.7 1023.9 2.0
04/10:30am 8.0 3.0 3.5 73 1.9 NNE 19 32 10 17 1023.7 1023.9 0.4
04/10:00am 8.6 3.8 2.4 65 2.6 N 17 28 9 15 1023.6 1023.8 0.0
04/09:30am 8.4 3.1 2.0 64 2.7 N 19 28 10 15 1023.4 1023.6 0.0
04/09:00am 8.2 4.6 2.7 68 2.3 N 11 17 6 9 1023.3 1023.5 0.0
04/08:30am 8.1 4.4 2.4 67 2.4 NNE 11 20 6 11 1023.1 1023.3 0.0
04/08:00am 8.0 5.0 2.3 67 2.4 NNE 7 11 4 6 1023.3 1023.5 0.0
04/07:30am 7.9 3.8 2.0 66 2.4 N 13 22 7 12 1023.1 1023.3 0.0
04/07:00am 7.9 3.0 1.7 65 2.5 N 17 22 9 12 1023.0 1023.2 0.0
04/06:30am 7.9 4.2 2.4 68 2.3 NNE 11 17 6 9 1023.1 1023.3 0.0
04/06:00am 7.6 4.4 2.9 72 2.0 NNE 9 13 5 7 1022.7 1022.9 0.0
04/05:30am 7.7 4.0 2.6 70 2.1 NNE 11 20 6 11 1022.6 1022.8 0.0
04/05:00am 7.5 4.6 2.6 71 2.0 NE 7 13 4 7 1022.8 1023.0 0.0
04/04:30am 7.7 3.9 2.0 67 2.4 NNE 11 20 6 11 1022.8 1023.0 0.0
04/04:00am 7.6 3.9 2.1 68 2.3 NNE 11 19 6 10 1022.8 1023.0 0.0
04/03:30am 7.6 4.2 1.9 67 2.3 NNE 9 17 5 9 1023.2 1023.4 0.0
04/03:00am 7.7 3.6 2.0 67 2.3 NNE 13 19 7 10 1023.4 1023.6 0.0
04/02:30am 7.5 4.5 1.8 67 2.3 NE 7 13 4 7 1023.7 1023.9 0.0
04/02:00am 7.4 4.4 2.1 69 2.2 NNE 7 15 4 8 1023.9 1024.1 0.0
04/01:30am 7.3 4.0 2.2 70 2.1 NNE 9 13 5 7 1023.9 1024.1 0.0
04/01:00am 7.2 3.9 2.3 71 2.0 NNE 9 15 5 8 1024.2 1024.4 0.0
04/12:30am 7.0 3.3 2.5 73 1.9 N 11 19 6 10 1024.3 1024.5 0.0
04/12:00am 6.5 3.3 3.1 79 1.4 N 9 11 5 6 1024.7 1024.9 0.0

Latest Capital City Observations: Canberra | Sydney | Melbourne | Brisbane | Adelaide | Perth | Hobart | Darwin

Other Formats:

Comma delimited format used in spreadsheet applications
http://www.bom.gov.au/fwo/IDV60901/IDV60901.94864.axf

JavaScript Object Notation format (JSON) in row-major order
http://www.bom.gov.au/fwo/IDV60901/IDV60901.94864.json